Anza Borrego Desert Research Center, California Weather observations

Data are for 10 minute period ending at time listed.
 Day   Time   Solar   Ave.   Ave.  Ave.  Vector  Max.   Baro.   Total    
  of    of     Rad.   Air    Rel.  Wind   Wind   Wind  Press.  Precip.   
Year   Day            Temp.  Hum.  Speed  Dir.   Gust                    
2015   (PST)  Kw/m2    F      %     mph   deg.    mph    mb.     in.     
-------------------------------------------------------------------------
 187   13:50   0.87  102.3    23    6.9   129    13.5   979.6    0.00 
 187   14:00   0.85  102.5    23    8.1   112    14.4   979.5    0.00 
 187   14:10   0.83  102.7    23    2.7    91     6.6   979.4    0.00 
 187   14:20   0.81  103.2    23    7.3   104    15.6   979.3    0.00 
 187   14:30   0.83  103.2    23    4.0   112    10.3   979.2    0.00 
 187   14:40   0.72  102.9    24    7.5   109    12.8   979.0    0.00 
 187   14:50   0.75  103.1    24    5.1   135    10.2   978.9    0.00 
 187   15:00   0.72  105.0    23    4.6   106    12.2   978.7    0.00 
 187   15:10   0.69  103.8    24    4.2    70     9.7   978.5    0.00 
 187   15:20   0.66  103.6    24    6.5   123    12.7   978.4    0.00 
 187   15:30   0.64  103.7    23    8.7    99    12.3   978.2    0.00 
 187   15:40   0.61  103.8    23    4.7    99    10.7   978.0    0.00 
 187   15:50   0.58  103.6    23    5.9   106    10.6   977.9    0.00 
 187   16:00   0.54  104.0    23    6.3   101    11.5   977.9    0.00 
 187   16:10   0.44  103.9    23    4.7    81     9.5   977.8    0.00 
 187   16:20   0.17  102.3    24    5.1    89    12.1   977.7    0.00 
 187   16:30   0.31  101.9    25    5.6    89     9.3   977.6    0.00 
 187   16:40   0.36  103.5    24    5.0    90     9.9   977.6    0.00 
 187   16:50   0.16  103.1    24    6.6    95    13.3   977.5    0.00 
 187   17:00   0.28  102.5    24    6.1   133    11.6   977.5    0.00 
 187   17:10   0.30  103.2    23    5.9   131    12.1   977.5    0.00 
 187   17:20   0.27  103.0    24    7.1   131    11.5   977.4    0.00 
 187   17:30   0.24  103.1    23    5.0   144     9.6   977.5    0.00 
 187   17:40   0.20  103.8    23    5.8   122    11.1   977.4    0.00 
 187   17:50   0.06  101.9    23    7.3   102    11.8   977.5    0.00 
 187   18:00   0.05  100.9    24    6.0    76    10.0   977.5    0.00 
 187   18:10   0.04  100.5    24    8.2    87    13.7   977.6    0.00 
 187   18:20   0.03  100.4    24    7.5    68    12.4   977.7    0.00 
 187   18:30   0.03  100.1    24    4.6    64     9.9   977.8    0.00 
 187   18:40   0.01   99.9    24    6.5    77     9.9   977.8    0.00 
 187   18:50   0.01   99.5    24    6.5    86     9.6   977.9    0.00 
 187   19:00   0.00   99.0    25    5.4    65     8.2   978.0    0.00 
 187   19:10   0.00   98.6    25    6.5    33    12.3   978.1    0.00 
 187   19:20   0.00   98.4    25    4.8    38     9.6   978.1    0.00 
 187   19:30   0.00   97.6    26    5.7     7     8.3   978.2    0.00 
 187   19:40   0.00   97.4    25    5.0   328     7.5   978.2    0.00 
 187   19:50   0.00   97.2    26    4.4     3     8.4   978.3    0.00 
 187   20:00   0.00   96.7    26    3.7   135     8.1   978.4    0.00 
 187   20:10   0.00   95.8    27    4.9   124     9.5   978.5    0.00 
 187   20:20   0.00   95.2    28    6.0   113     9.1   978.7    0.00 
 187   20:30   0.00   94.5    29    7.5    97    11.2   978.8    0.00 
 187   20:40   0.00   94.1    29    6.4    83     9.1   979.0    0.00 
 187   20:50   0.00   94.0    29    4.4   100     7.3   979.1    0.00 
 187   21:00   0.00   93.4    29    2.1   173     4.6   979.2    0.00 
 187   21:10   0.00   92.0    30    4.8   214     6.4   979.2    0.00 
 187   21:20   0.00   91.7    30    5.6   189     8.6   979.1    0.00 
 187   21:30   0.00   92.3    30    7.1   176     9.6   979.1    0.00 
 187   21:40   0.00   92.8    29    6.6   172     8.7   979.1    0.00 
 187   21:50   0.00   92.2    30    4.4   209     7.0   979.1    0.00 
 187   22:00   0.00   91.2    30    3.4   182     4.2   979.1    0.00 
 187   22:10   0.00   91.2    30    3.1   207     4.5   978.9    0.00 
 187   22:20   0.00   90.6    31    3.0    55     4.6   870.0    0.00 
 187   22:30   0.00   89.7    32    2.3    85     3.6   502.1    0.00 
 187   22:40   0.00   88.5    33    1.7    12     5.3   502.1    0.00 
 187   22:50   0.00   88.2    34    3.6    16     5.3   502.1    0.00 
 187   23:00   0.00   88.1    34    3.1   341     5.0   502.0    0.00 
 187   23:10   0.00   88.4    34    2.5   336     4.2   502.0    0.00 
 187   23:20   0.00   88.3    33    3.2   307     4.6   502.0    0.00 
 187   23:30   0.00   86.9    34    4.0   269     5.5   502.0    0.00 
 187   23:40   0.00   85.9    35    3.6   268     4.8   502.0    0.00 
 187   23:50   0.00   85.8    36    1.4   309     3.1   502.0    0.00 
 188    0:00   0.00   85.9    35    0.8    22     2.1   502.0    0.00 
 188    0:10   0.00   85.6    36    2.0    48     3.1   502.0    0.00 
 188    0:20   0.00   85.5    36    1.4   101     2.7   502.0    0.00 
 188    0:30   0.00   84.4    36    1.0   273     1.9   502.0    0.00 
 188    0:40   0.00   84.6    36    1.1   272     2.3   502.0    0.00 
 188    0:50   0.00   83.7    37    1.0   270     3.1   502.0    0.00 
 188    1:00   0.00   82.1    38    1.0   256     3.0   502.0    0.00 
 188    1:10   0.00   81.5    39    2.8   212     3.6   502.0    0.00 
 188    1:20   0.00   82.0    38    2.8   210     3.6   502.0    0.00 
 188    1:30   0.00   82.6    38    2.7   228     3.7   502.0    0.00 
 188    1:40   0.00   82.1    38    2.1   235     2.8   502.0    0.00 
 188    1:50   0.00   81.8    38    2.2   214     3.1   502.0    0.00 
 188    2:00   0.00   80.8    39    1.6   234     3.1   502.0    0.00 
 188    2:10   0.00   82.0    37    1.7   217     2.8   502.0    0.00 
 188    2:20   0.00   81.0    37    3.1   242     4.4   502.0    0.00 
 188    2:30   0.00   82.3    36    2.2   192     3.4   502.0    0.00 
 188    2:40   0.00   82.4    36    1.0   221     2.3   502.0    0.00 
 188    2:50   0.00   81.7    38    2.3   282     4.0   502.0    0.00 
 188    3:00   0.00   83.0    36    1.7   230     2.7   502.0    0.00 
 188    3:10   0.00   83.2    35    2.5   241     3.3   502.0    0.00 
 188    3:20   0.00   81.0    37    4.3   258     6.1   502.0    0.00 
 188    3:30   0.00   81.2    36    1.9   260     4.4   502.0    0.00 
 188    3:40   0.00   80.3    37    0.8   138     2.6   502.0    0.00 
 188    3:50   0.00   80.6    38    2.7   359     4.3   502.0    0.00 
 188    4:00   0.00   80.8    38    2.5   293     3.4   501.9    0.00 
 188    4:10   0.00   80.0    39    3.1   200     3.6   501.9    0.00 
 188    4:20   0.00   79.6    39    3.8   217     4.7   501.9    0.00 
 188    4:30   0.00   78.7    40    2.9   228     4.1   501.9    0.00 
 188    4:40   0.00   79.9    39    3.1   240     4.0   501.9    0.00 
 188    4:50   0.00   79.2    39    3.5   229     4.7   501.9    0.00 
 188    5:00   0.00   78.5    40    3.2   215     4.5   501.9    0.00 
 188    5:10   0.01   78.7    39    3.9   196     4.6   501.9    0.00 
 188    5:20   0.04   80.7    37    3.8   190     4.5   501.9    0.00 
 188    5:30   0.04   83.3    35    3.0   136     4.4   501.9    0.00 
 188    5:40   0.07   84.4    34    1.8    39     3.4   502.0    0.00 
 188    5:50   0.12   86.0    33    2.1   317     3.9   502.0    0.00 
 188    6:00   0.12   87.0    32    3.5   134     6.0   502.0    0.00 
 188    6:10   0.16   86.4    33    4.3   129     5.7   502.0    0.00 
 188    6:20   0.18   86.5    33    4.9    93     6.9   502.0    0.00 
 188    6:30   0.22   86.5    34    4.2    74     6.7   502.0    0.00 
 188    6:40   0.28   86.8    34    3.2    70     4.5   502.0    0.00 
 188    6:50   0.32   88.4    34    1.7    72     4.1   502.0    0.00 
 188    7:00   0.35   90.2    32    1.9    33     4.0   502.0    0.00 
 188    7:10   0.39   90.3    32    2.3    48     4.3   502.0    0.00 
 188    7:20   0.42   90.8    31    1.8   107     3.6   502.1    0.00 
 188    7:30   0.46   91.4    30    2.8    94     5.3   502.1    0.00 
 188    7:40   0.49   91.5    30    2.8   106     6.2   502.1    0.00 
 188    7:50   0.52   92.2    29    2.0    96     4.8   712.4    0.00 
 188    8:00   0.56   93.5    28    2.2    92     4.0   980.1    0.00 
 188    8:10   0.59   94.1    27    1.6    83     3.7   980.1    0.00 
 188    8:20   0.62   94.7    27    1.7   108     4.3   980.0    0.00 
 188    8:30   0.65   95.2    26    1.8    44     4.8   979.9    0.00 
 188    8:40   0.69   95.4    26    3.1    81     5.2   979.9    0.00 
 188    8:50   0.71   96.1    25    3.8    89     7.7   979.9    0.00 
 188    9:00   0.74   95.6    25    4.5    86     9.3   979.9    0.00 
 188    9:10   0.77   96.2    24    3.2    90     8.3   979.8    0.00 
 188    9:20   0.80   97.1    24    4.2   105     7.6   979.8    0.00 
 188    9:30   0.82   97.3    22    4.5   107     9.5   979.7    0.00 
 188    9:40   0.84   97.5    22    5.5    96     9.2   979.6    0.00 
 188    9:50   0.86   97.7    22    4.1    76     9.2   979.5    0.00 
 188   10:00   0.88   98.3    22    3.7    61     8.0   979.5    0.00 
 188   10:10   0.89   99.5    22    4.4   159     8.1   979.4    0.00 
 188   10:20   0.91   99.6    22    6.1   114    11.2   979.3    0.00 
 188   10:30   0.92   99.5    22    2.8   159     6.4   979.2    0.00 
 188   10:40   0.94   99.8    21    5.9   112    11.2   979.0    0.00 
 188   10:50   0.95  100.2    20    4.3   109     7.5   978.9    0.00 
 188   11:00   0.96  100.8    19    4.9    98    10.6   978.9    0.00 
 188   11:10   0.97  101.2    19    3.2    16     8.0   978.7    0.00 
 188   11:20   0.97  101.4    19    4.0    75     8.2   978.6    0.00 
 188   11:30   0.97  101.6    19    4.5    78    11.8   978.4    0.00 
 188   11:40   0.97  102.6    19    6.5   114    12.0   978.3    0.00 
 188   11:50   0.97  102.2    18    8.6    96    13.7   978.1    0.00 
 188   12:00   0.98  101.7    18    6.8   102    11.0   977.9    0.00 
 188   12:10   0.97  102.6    16    6.3   104    13.6   977.7    0.00 
 188   12:20   0.97  103.1    16    6.9   112    11.9   977.6    0.00 
 188   12:30   0.97  103.9    15    6.9   113    11.5   977.4    0.00 
 188   12:40   0.94  104.2    15    5.6   121    11.6   977.2    0.00 
 188   12:50   0.96  103.9    14    7.4    99    13.9   977.1    0.00 
 188   13:00   0.95  105.2    14    6.2    88    12.9   976.9    0.00 
 188   13:10   0.94  104.8    14    8.4   140    15.2   976.7    0.00 
 188   13:20   0.93  105.5    14    8.6   126    14.1   976.5    0.00 
 188   13:30   0.91  104.7    15    7.7    95    13.4   976.3    0.00 
 188   13:40   0.90  104.9    15    6.0   130    12.4   976.3    0.00 

Return to Anza Borrego Desert Research Center graphs page.


Western Regional Climate Center,wrcc@dri.edu